METAR Data
IDs: Format: Raw Decoded Include TAF

Data at: 0213 UTC 24 Sep 2018

KCFD 240155Z AUTO 25003KT 10SM OVC035 22/22 A2990 RMK AO2 T02210221
KCFD 240135Z AUTO 00000KT 10SM OVC037 22/22 A2989 RMK AO2 T02230223
KCFD 240115Z AUTO 00000KT 10SM OVC037 22/22 A2989 RMK AO2 T02210221
KCFD 240055Z AUTO 00000KT 10SM OVC037 22/22 A2988 RMK AO2 T02210221
KCFD 240035Z AUTO 00000KT 10SM OVC037 22/22 A2988 RMK AO2 T02210221
KCFD 240015Z AUTO 00000KT 10SM SCT027 OVC037 22/22 A2988 RMK AO2 T02200220
KCFD 232355Z AUTO 00000KT 7SM BKN029 OVC035 22/22 A2988 RMK AO2 T02190219 10237 20218
KCFD 232335Z AUTO 00000KT 10SM SCT015 OVC031 23/22 A2988 RMK AO2 T02250216
KCFD 232315Z AUTO 22003KT 10SM SCT015 BKN020 OVC031 23/21 A2988 RMK AO2 T02250212
KCFD 232255Z AUTO 00000KT 7SM BKN020 OVC028 23/22 A2988 RMK AO2 T02250215
KCFD 232235Z AUTO 00000KT 10SM SCT024 BKN029 OVC033 23/21 A2988 RMK AO2 T02300212
KCFD 232215Z AUTO 00000KT 10SM OVC033 23/21 A2988 RMK AO2 T02300209
KCFD 232155Z AUTO 00000KT 10SM OVC035 23/21 A2988 RMK AO2 T02310205
KCFD 232135Z AUTO 22003KT 10SM SCT024 OVC035 23/21 A2988 RMK AO2 T02300209
KCFD 232115Z AUTO 00000KT 10SM SCT016 BKN028 OVC035 23/22 A2989 RMK AO2 T02260218
KCFD 232055Z AUTO 33004KT 10SM BKN016 OVC024 23/21 A2990 RMK AO2 T02270214
KCFD 232035Z AUTO 00000KT 10SM SCT014 OVC024 23/21 A2990 RMK AO2 T02270211
KCFD 232015Z AUTO 00000KT 10SM SCT017 OVC024 22/22 A2990 RMK AO2 T02200216
KCFD 231955Z AUTO 23004KT 5SM -RA OVC017 22/22 A2991 RMK AO2 T02190219
KCFD 231935Z AUTO 25003KT 7SM BKN019 OVC027 22/21 A2991 RMK AO2 T02220213
KCFD 231915Z AUTO 26004KT 10SM BKN019 OVC027 24/20 A2992 RMK AO2 T02350198
KCFD 231855Z AUTO 23004KT 10SM SCT019 OVC029 24/20 A2992 RMK AO2 T02350200
KCFD 231835Z AUTO 19004KT 10SM SCT019 OVC029 24/20 A2993 RMK AO2 T02350203
KCFD 231815Z AUTO 22005KT 10SM BKN021 OVC038 24/20 A2994 RMK AO2 T02360202
KCFD 231755Z AUTO 17004KT 10SM SCT029 OVC038 23/20 A2994 RMK AO2 T02340200 10234 20203
KCFD 231735Z AUTO 00000KT 10SM SCT020 OVC027 23/20 A2995 RMK AO2 T02270202
KCFD 231715Z AUTO 00000KT 10SM OVC020 22/21 A2995 RMK AO2 T02200213
KCFD 231655Z AUTO 27003KT 10SM OVC018 22/22 A2996 RMK AO2 T02160216
KCFD 231635Z AUTO 27006KT 10SM OVC020 22/22 A2996 RMK AO2 T02200216
KCFD 231615Z AUTO 27005KT 10SM SCT014 OVC020 22/21 A2995 RMK AO2 T02240206
KCFD 231555Z AUTO 00000KT 10SM SCT014 BKN019 OVC035 22/21 A2995 RMK AO2 T02230206
KCFD 231535Z AUTO 00000KT 10SM SCT010 BKN025 OVC035 22/21 A2995 RMK AO2 T02220214
KCFD 231515Z AUTO 00000KT 10SM SCT008 SCT016 OVC025 21/21 A2995 RMK AO2 T02120212
KCFD 231455Z AUTO 00000KT 7SM SCT008 BKN012 OVC017 21/21 A2995 RMK AO2 T02090209
KCFD 231435Z AUTO 00000KT 5SM BR SCT006 OVC010 21/21 A2995 RMK AO2 T02050205
KCFD 231415Z AUTO 00000KT 7SM OVC010 21/21 A2995 RMK AO2 T02060206
KCFD 231355Z AUTO 00000KT 5SM BR OVC010 21/21 A2994 RMK AO2 T02050205
KCFD 231335Z AUTO 00000KT 10SM OVC012 21/21 A2993 RMK AO2 T02090209
KCFD 231315Z AUTO 00000KT 10SM OVC012 21/21 A2993 RMK AO2 T02060206
KCFD 231255Z AUTO 00000KT 10SM OVC012 21/21 A2992 RMK AO2 T02060206
KCFD 231235Z AUTO 00000KT 10SM OVC014 21/21 A2992 RMK AO2 T02050205
KCFD 231215Z AUTO 28003KT 10SM OVC014 21/21 A2991 RMK AO2 T02060206
KCFD 231155Z AUTO 29003KT 10SM OVC012 21/21 A2991 RMK AO2 T02060206 10213 20205
KCFD 231135Z AUTO 00000KT 10SM OVC012 21/21 A2991 RMK AO2 T02060206
KCFD 231115Z AUTO 30003KT 10SM OVC012 21/21 A2990 RMK AO2 T02060206
KCFD 231055Z AUTO 00000KT 10SM OVC012 21/21 A2990 RMK AO2 T02070207
KCFD 231035Z AUTO 27003KT 10SM OVC012 21/21 A2990 RMK AO2 T02060206
KCFD 231015Z AUTO 26003KT 10SM OVC012 21/21 A2990 RMK AO2 T02070207
KCFD 230955Z AUTO 00000KT 10SM OVC012 21/21 A2990 RMK AO2 T02070207
KCFD 230935Z AUTO 00000KT 10SM BKN012 OVC060 21/21 A2990 RMK AO2 T02070207
KCFD 230915Z AUTO 00000KT 10SM SCT032 OVC060 21/21 A2990 RMK AO2 T02070207
KCFD 230855Z AUTO 00000KT 10SM SCT030 OVC060 21/21 A2990 RMK AO2 T02080205
KCFD 230835Z AUTO 00000KT 10SM BKN028 BKN035 OVC055 21/20 A2991 RMK AO2 T02090203
KCFD 230815Z AUTO 10SM BKN026 BKN035 OVC070 21/20 A2991 RMK AO2 T02100202
KCFD 230755Z AUTO 00000KT 10SM OVC026 21/20 A2992 RMK AO2 T02100201
KCFD 230735Z AUTO 00000KT 10SM OVC026 21/20 A2992 RMK AO2 LTG DSNT SE T02110200
KCFD 230715Z AUTO 00000KT 10SM BKN024 OVC031 21/20 A2993 RMK AO2 T02120200
KCFD 230655Z AUTO 00000KT 10SM OVC024 21/20 A2993 RMK AO2 T02120198
KCFD 230635Z AUTO 00000KT 10SM OVC024 21/20 A2993 RMK AO2 LTG DSNT SE T02120199
KCFD 230615Z AUTO 00000KT 10SM OVC024 21/20 A2993 RMK AO2 LTG DSNT SE T02120199
KCFD 230555Z AUTO 00000KT 10SM OVC026 21/20 A2993 RMK AO2 LTG DSNT SE T02120200 10237 20212 402600212
KCFD 230535Z AUTO 28004KT 10SM OVC026 21/20 A2993 RMK AO2 T02140196
KCFD 230515Z AUTO 28003KT 10SM OVC026 21/20 A2994 RMK AO2 T02140196
KCFD 230455Z AUTO 29005KT 10SM OVC026 22/20 A2995 RMK AO2 T02150197
KCFD 230435Z AUTO 28004KT 10SM OVC026 22/20 A2995 RMK AO2 T02150197
KCFD 230415Z AUTO 28003KT 10SM OVC026 22/20 A2995 RMK AO2 T02150197
KCFD 230355Z AUTO 00000KT 10SM OVC026 22/20 A2995 RMK AO2 T02160198
KCFD 230335Z AUTO 29003KT 10SM OVC026 22/20 A2995 RMK AO2 T02160196
KCFD 230315Z AUTO 29003KT 10SM OVC026 22/20 A2995 RMK AO2 LTG DSNT S T02160196
KCFD 230255Z AUTO 30003KT 10SM BKN026 OVC041 22/20 A2994 RMK AO2 T02160195
KCFD 230235Z AUTO 30006KT 10SM BKN024 BKN035 OVC041 22/20 A2994 RMK AO2 T02180195
KCFD 230215Z AUTO 28003KT 10SM OVC022 22/20 A2994 RMK AO2 T02200198
KCFD 230155Z AUTO 29007KT 10SM OVC022 22/20 A2993 RMK AO2 T02210202
KCFD 230135Z AUTO 29007KT 10SM OVC022 22/20 A2992 RMK AO2 T02230201
KCFD 230115Z AUTO 29006KT 10SM OVC020 23/20 A2992 RMK AO2 T02250203
KCFD 230055Z AUTO 29006KT 10SM OVC020 23/20 A2992 RMK AO2 T02270204
KCFD 230035Z AUTO 29008KT 10SM OVC022 23/20 A2992 RMK AO2 T02300201
KCFD 230015Z AUTO 28006KT 10SM OVC022 24/21 A2992 RMK AO2 T02350205
KCFD 222355Z AUTO 29006KT 10SM BKN022 OVC031 24/21 A2991 RMK AO2 T02370205 10260 20237
KCFD 222335Z AUTO 29007KT 10SM SCT022 OVC031 24/21 A2991 RMK AO2 T02410210
KCFD 222315Z AUTO 28006KT 10SM BKN022 OVC030 24/21 A2991 RMK AO2 T02420211
KCFD 222255Z AUTO 29005KT 10SM OVC020 25/22 A2991 RMK AO2 T02450215
KCFD 222235Z AUTO 29005KT 10SM OVC020 25/22 A2990 RMK AO2 T02460217
KCFD 222215Z AUTO 28006KT 10SM OVC022 25/22 A2990 RMK AO2 T02520217
KCFD 222155Z AUTO 26006KT 10SM BKN020 BKN038 25/22 A2990 RMK AO2 T02520215
KCFD 222135Z AUTO 27005KT 10SM SCT020 SCT120 26/21 A2990 RMK AO2 LTG DSNT SE T02550214
KCFD 222115Z AUTO 27008KT 10SM SCT020 SCT039 BKN120 26/22 A2990 RMK AO2 T02570217
KCFD 222055Z AUTO 26006KT 10SM BKN020 OVC039 26/22 A2991 RMK AO2 LTG DSNT SE T02560220
KCFD 222035Z AUTO 28006KT 10SM BKN020 26/22 A2992 RMK AO2 LTG DSNT E T02560224
KCFD 222015Z AUTO 24005KT 10SM VCTS OVC018 26/23 A2992 RMK AO2 LTG DSNT E AND SE T02550226
KCFD 221955Z AUTO 28006KT 10SM OVC018 26/23 A2992 RMK AO2 LTG DSNT E THRU S T02570229
KCFD 221930Z AUTO 23003KT 10SM OVC016 26/23 A2992 RMK AO2 LTG DSNT S T02570230
KCFD 221915Z AUTO 31003KT 10SM OVC016 26/23 A2992 RMK AO2 LTG DSNT E THRU S T02550230
KCFD 221855Z AUTO 00000KT 10SM OVC012 25/23 A2993 RMK AO2 LTG DSNT E T02530230
KCFD 221835Z AUTO 27006KT 10SM OVC012 25/24 A2993 RMK AO2 LTG DSNT E AND SE T02510237
KCFD 221815Z AUTO 28008KT 10SM OVC010 25/24 A2993 RMK AO2 LTG DSNT NE THRU SE T02510237
KCFD 221755Z AUTO 29007KT 10SM VCTS OVC010 25/24 A2993 RMK AO2 LTG DSNT NE THRU SE T02520242 10260 20252
KCFD 221735Z AUTO 29008KT 10SM BKN010 BKN014 BKN019 25/25 A2994 RMK AO2 LTG DSNT E AND SE T02530247
KCFD 221715Z AUTO 27008KT 10SM SCT009 BKN014 OVC026 25/25 A2995 RMK AO2 LTG DSNT NE AND E T02540251
KCFD 221655Z AUTO 27007KT 10SM BKN014 OVC018 26/25 A2995 RMK AO2 LTG DSNT NE T02590249
KCFD 221635Z AUTO 25005KT 10SM SCT012 BKN023 26/25 A2995 RMK AO2 T02600250
KCFD 221615Z AUTO 27008KT 10SM BKN012 26/25 A2995 RMK AO2 T02570254
KCFD 221555Z AUTO 24008KT 10SM SCT012 26/26 A2994 RMK AO2 T02570257
KCFD 221535Z AUTO 21005KT 10SM SCT046 SCT055 SCT065 26/26 A2994 RMK AO2 T02570257
KCFD 221515Z AUTO 23005KT 10SM SCT023 SCT033 BKN055 25/25 A2993 RMK AO2 LTG DSNT E T02530253
KCFD 221455Z AUTO 23008KT 10SM SCT018 BKN023 OVC032 25/25 A2993 RMK AO2 LTG DSNT E T02530253
KCFD 221435Z AUTO 22008KT 10SM SCT019 BKN039 BKN044 26/26 A2992 RMK AO2 LTG DSNT E T02550255
KCFD 221415Z AUTO 21007G15KT 10SM SCT009 SCT025 BKN036 25/25 A2992 RMK AO2 T02530252